sensor_id;sensor_type;location;lat;lon;timestamp;temperature;humidity
4406;DHT22;2216;53.806;11.598;2023-10-08T00:01:24;11.80;79.00
4406;DHT22;2216;53.806;11.598;2023-10-08T00:03:50;11.70;78.80
4406;DHT22;2216;53.806;11.598;2023-10-08T00:06:20;11.80;78.90
4406;DHT22;2216;53.806;11.598;2023-10-08T00:08:47;11.70;78.80
4406;DHT22;2216;53.806;11.598;2023-10-08T00:11:13;11.70;78.80
4406;DHT22;2216;53.806;11.598;2023-10-08T00:13:41;11.70;78.90
4406;DHT22;2216;53.806;11.598;2023-10-08T00:16:10;11.70;78.90
4406;DHT22;2216;53.806;11.598;2023-10-08T00:18:38;11.70;78.90
4406;DHT22;2216;53.806;11.598;2023-10-08T00:21:06;11.70;78.90
4406;DHT22;2216;53.806;11.598;2023-10-08T00:23:38;11.70;78.80
4406;DHT22;2216;53.806;11.598;2023-10-08T00:26:08;11.70;78.90
4406;DHT22;2216;53.806;11.598;2023-10-08T00:28:34;11.70;78.80
4406;DHT22;2216;53.806;11.598;2023-10-08T00:31:03;11.70;78.80
4406;DHT22;2216;53.806;11.598;2023-10-08T00:33:31;11.70;78.90
4406;DHT22;2216;53.806;11.598;2023-10-08T00:35:57;11.70;78.80
4406;DHT22;2216;53.806;11.598;2023-10-08T00:38:23;11.70;78.80
4406;DHT22;2216;53.806;11.598;2023-10-08T00:40:51;11.70;78.90
4406;DHT22;2216;53.806;11.598;2023-10-08T00:43:34;11.70;79.60
4406;DHT22;2216;53.806;11.598;2023-10-08T00:46:04;11.70;78.90
4406;DHT22;2216;53.806;11.598;2023-10-08T00:48:36;11.70;78.90
4406;DHT22;2216;53.806;11.598;2023-10-08T00:51:05;11.70;78.90
4406;DHT22;2216;53.806;11.598;2023-10-08T00:53:47;11.60;78.80
4406;DHT22;2216;53.806;11.598;2023-10-08T00:56:32;11.60;78.80
4406;DHT22;2216;53.806;11.598;2023-10-08T00:59:17;11.60;79.00
4406;DHT22;2216;53.806;11.598;2023-10-08T01:01:47;11.60;78.90
4406;DHT22;2216;53.806;11.598;2023-10-08T01:04:18;11.60;78.90
4406;DHT22;2216;53.806;11.598;2023-10-08T01:06:52;11.60;78.90
4406;DHT22;2216;53.806;11.598;2023-10-08T01:09:25;11.60;78.90
4406;DHT22;2216;53.806;11.598;2023-10-08T01:12:19;11.60;78.90
4406;DHT22;2216;53.806;11.598;2023-10-08T01:14:59;11.60;79.00
4406;DHT22;2216;53.806;11.598;2023-10-08T01:17:44;11.70;79.10
4406;DHT22;2216;53.806;11.598;2023-10-08T01:20:18;11.70;79.00
4406;DHT22;2216;53.806;11.598;2023-10-08T01:23:10;11.70;79.00
4406;DHT22;2216;53.806;11.598;2023-10-08T01:25:43;11.70;79.00
4406;DHT22;2216;53.806;11.598;2023-10-08T01:28:09;11.70;79.00
4406;DHT22;2216;53.806;11.598;2023-10-08T01:30:58;11.70;79.00
4406;DHT22;2216;53.806;11.598;2023-10-08T01:33:26;11.70;79.00
4406;DHT22;2216;53.806;11.598;2023-10-08T01:36:11;11.70;79.00
4406;DHT22;2216;53.806;11.598;2023-10-08T01:38:38;11.70;79.00
4406;DHT22;2216;53.806;11.598;2023-10-08T01:41:04;11.70;79.00
4406;DHT22;2216;53.806;11.598;2023-10-08T01:43:43;11.70;79.00
4406;DHT22;2216;53.806;11.598;2023-10-08T01:46:10;11.70;79.00
4406;DHT22;2216;53.806;11.598;2023-10-08T01:48:37;11.70;78.90
4406;DHT22;2216;53.806;11.598;2023-10-08T01:51:04;11.70;78.90
4406;DHT22;2216;53.806;11.598;2023-10-08T01:53:39;11.80;79.00
4406;DHT22;2216;53.806;11.598;2023-10-08T01:56:05;11.70;78.90
4406;DHT22;2216;53.806;11.598;2023-10-08T01:58:31;11.80;79.00
4406;DHT22;2216;53.806;11.598;2023-10-08T02:00:59;11.70;78.90
4406;DHT22;2216;53.806;11.598;2023-10-08T02:03:26;11.80;78.90
4406;DHT22;2216;53.806;11.598;2023-10-08T02:05:53;11.80;78.90
4406;DHT22;2216;53.806;11.598;2023-10-08T02:08:20;11.80;79.00
4406;DHT22;2216;53.806;11.598;2023-10-08T02:10:46;11.80;78.90
4406;DHT22;2216;53.806;11.598;2023-10-08T02:13:14;11.80;78.90
4406;DHT22;2216;53.806;11.598;2023-10-08T02:15:45;11.70;78.80
4406;DHT22;2216;53.806;11.598;2023-10-08T02:18:15;11.80;79.60
4406;DHT22;2216;53.806;11.598;2023-10-08T02:20:41;11.80;78.90
4406;DHT22;2216;53.806;11.598;2023-10-08T02:23:08;11.80;78.80
4406;DHT22;2216;53.806;11.598;2023-10-08T02:25:40;11.80;78.80
4406;DHT22;2216;53.806;11.598;2023-10-08T02:28:09;11.80;78.90
4406;DHT22;2216;53.806;11.598;2023-10-08T02:30:36;11.70;78.70
4406;DHT22;2216;53.806;11.598;2023-10-08T02:33:08;11.70;78.70
4406;DHT22;2216;53.806;11.598;2023-10-08T02:35:43;11.70;78.70
4406;DHT22;2216;53.806;11.598;2023-10-08T02:38:14;11.70;78.60
4406;DHT22;2216;53.806;11.598;2023-10-08T02:40:42;11.70;79.30
4406;DHT22;2216;53.806;11.598;2023-10-08T02:43:13;11.70;78.60
4406;DHT22;2216;53.806;11.598;2023-10-08T02:45:41;11.60;78.50
4406;DHT22;2216;53.806;11.598;2023-10-08T02:48:08;11.60;78.50
4406;DHT22;2216;53.806;11.598;2023-10-08T02:50:42;11.60;78.60
4406;DHT22;2216;53.806;11.598;2023-10-08T02:53:09;11.60;78.60
4406;DHT22;2216;53.806;11.598;2023-10-08T02:55:41;11.60;78.80
4406;DHT22;2216;53.806;11.598;2023-10-08T02:58:13;11.50;78.60
4406;DHT22;2216;53.806;11.598;2023-10-08T03:00:45;11.50;78.50
4406;DHT22;2216;53.806;11.598;2023-10-08T03:03:13;11.50;78.60
4406;DHT22;2216;53.806;11.598;2023-10-08T03:05:49;11.50;78.60
4406;DHT22;2216;53.806;11.598;2023-10-08T03:08:18;11.50;78.60
4406;DHT22;2216;53.806;11.598;2023-10-08T03:10:51;11.50;78.60
4406;DHT22;2216;53.806;11.598;2023-10-08T03:13:24;11.40;78.40
4406;DHT22;2216;53.806;11.598;2023-10-08T03:15:51;11.40;78.40
4406;DHT22;2216;53.806;11.598;2023-10-08T03:18:23;11.40;79.20
4406;DHT22;2216;53.806;11.598;2023-10-08T03:20:50;11.40;78.50
4406;DHT22;2216;53.806;11.598;2023-10-08T03:23:17;11.30;78.40
4406;DHT22;2216;53.806;11.598;2023-10-08T03:25:59;11.30;78.40
4406;DHT22;2216;53.806;11.598;2023-10-08T03:28:31;11.30;78.40
4406;DHT22;2216;53.806;11.598;2023-10-08T03:31:00;11.20;78.30
4406;DHT22;2216;53.806;11.598;2023-10-08T03:33:35;11.20;78.20
4406;DHT22;2216;53.806;11.598;2023-10-08T03:36:07;11.10;78.10
4406;DHT22;2216;53.806;11.598;2023-10-08T03:38:46;11.10;78.10
4406;DHT22;2216;53.806;11.598;2023-10-08T03:41:22;11.00;78.00
4406;DHT22;2216;53.806;11.598;2023-10-08T03:43:53;11.00;78.00
4406;DHT22;2216;53.806;11.598;2023-10-08T03:46:31;10.90;77.90
4406;DHT22;2216;53.806;11.598;2023-10-08T03:49:05;10.80;77.80
4406;DHT22;2216;53.806;11.598;2023-10-08T03:51:40;10.80;77.90
4406;DHT22;2216;53.806;11.598;2023-10-08T03:54:07;10.70;77.80
4406;DHT22;2216;53.806;11.598;2023-10-08T03:56:56;10.60;77.80
4406;DHT22;2216;53.806;11.598;2023-10-08T03:59:22;10.60;77.80
4406;DHT22;2216;53.806;11.598;2023-10-08T04:02:01;10.50;77.80
4406;DHT22;2216;53.806;11.598;2023-10-08T04:04:43;10.40;77.80
4406;DHT22;2216;53.806;11.598;2023-10-08T04:07:23;10.40;77.80
4406;DHT22;2216;53.806;11.598;2023-10-08T04:09:57;10.30;77.80
4406;DHT22;2216;53.806;11.598;2023-10-08T04:12:39;10.30;77.80
4406;DHT22;2216;53.806;11.598;2023-10-08T04:15:10;10.20;77.80
4406;DHT22;2216;53.806;11.598;2023-10-08T04:17:38;10.10;77.80
4406;DHT22;2216;53.806;11.598;2023-10-08T04:20:14;10.10;77.80
4406;DHT22;2216;53.806;11.598;2023-10-08T04:23:03;10.10;77.90
4406;DHT22;2216;53.806;11.598;2023-10-08T04:25:46;10.00;77.80
4406;DHT22;2216;53.806;11.598;2023-10-08T04:28:19;9.90;77.80
4406;DHT22;2216;53.806;11.598;2023-10-08T04:30:46;9.80;77.80
4406;DHT22;2216;53.806;11.598;2023-10-08T04:33:16;9.80;77.80
4406;DHT22;2216;53.806;11.598;2023-10-08T04:35:43;9.80;77.90
4406;DHT22;2216;53.806;11.598;2023-10-08T04:38:20;9.70;77.90
4406;DHT22;2216;53.806;11.598;2023-10-08T04:40:48;9.60;77.80
4406;DHT22;2216;53.806;11.598;2023-10-08T04:43:20;9.60;77.90
4406;DHT22;2216;53.806;11.598;2023-10-08T04:45:59;9.50;77.90
4406;DHT22;2216;53.806;11.598;2023-10-08T04:48:31;9.50;78.00
4406;DHT22;2216;53.806;11.598;2023-10-08T04:50:59;9.50;78.10
4406;DHT22;2216;53.806;11.598;2023-10-08T04:53:32;9.50;78.10
4406;DHT22;2216;53.806;11.598;2023-10-08T04:56:04;9.40;78.00
4406;DHT22;2216;53.806;11.598;2023-10-08T04:58:34;9.40;78.10
4406;DHT22;2216;53.806;11.598;2023-10-08T05:01:03;9.30;78.00
4406;DHT22;2216;53.806;11.598;2023-10-08T05:03:55;9.30;78.00
4406;DHT22;2216;53.806;11.598;2023-10-08T05:06:27;9.30;78.10
4406;DHT22;2216;53.806;11.598;2023-10-08T05:09:04;9.20;78.00
4406;DHT22;2216;53.806;11.598;2023-10-08T05:11:46;9.20;78.10
4406;DHT22;2216;53.806;11.598;2023-10-08T05:14:17;9.20;78.10
4406;DHT22;2216;53.806;11.598;2023-10-08T05:19:28;9.10;78.10
4406;DHT22;2216;53.806;11.598;2023-10-08T05:22:08;9.10;78.20
4406;DHT22;2216;53.806;11.598;2023-10-08T05:25:03;9.10;78.10
4406;DHT22;2216;53.806;11.598;2023-10-08T05:27:43;9.00;78.10
4406;DHT22;2216;53.806;11.598;2023-10-08T05:30:12;9.00;78.10
4406;DHT22;2216;53.806;11.598;2023-10-08T05:32:57;8.90;78.10
4406;DHT22;2216;53.806;11.598;2023-10-08T05:35:36;8.90;78.10
4406;DHT22;2216;53.806;11.598;2023-10-08T05:38:22;8.90;78.10
4406;DHT22;2216;53.806;11.598;2023-10-08T05:40:50;8.90;78.10
4406;DHT22;2216;53.806;11.598;2023-10-08T05:46:07;8.80;78.10
4406;DHT22;2216;53.806;11.598;2023-10-08T05:48:52;8.80;78.10
4406;DHT22;2216;53.806;11.598;2023-10-08T05:51:29;8.80;78.20
4406;DHT22;2216;53.806;11.598;2023-10-08T05:54:21;8.80;78.20
4406;DHT22;2216;53.806;11.598;2023-10-08T05:57:01;8.70;78.30
4406;DHT22;2216;53.806;11.598;2023-10-08T05:59:41;8.80;78.40
4406;DHT22;2216;53.806;11.598;2023-10-08T06:02:29;8.70;78.30
4406;DHT22;2216;53.806;11.598;2023-10-08T06:05:05;8.80;78.50
4406;DHT22;2216;53.806;11.598;2023-10-08T06:07:50;8.80;78.60
4406;DHT22;2216;53.806;11.598;2023-10-08T06:10:27;8.80;78.70
4406;DHT22;2216;53.806;11.598;2023-10-08T06:13:10;8.80;78.70
4406;DHT22;2216;53.806;11.598;2023-10-08T06:15:46;8.80;78.80
4406;DHT22;2216;53.806;11.598;2023-10-08T06:18:27;8.90;78.90
4406;DHT22;2216;53.806;11.598;2023-10-08T06:20:57;8.90;78.90
4406;DHT22;2216;53.806;11.598;2023-10-08T06:23:32;8.90;78.90
4406;DHT22;2216;53.806;11.598;2023-10-08T06:25:58;8.90;78.90
4406;DHT22;2216;53.806;11.598;2023-10-08T06:28:43;8.90;78.90
4406;DHT22;2216;53.806;11.598;2023-10-08T06:31:10;9.00;79.00
4406;DHT22;2216;53.806;11.598;2023-10-08T06:33:43;9.00;79.10
4406;DHT22;2216;53.806;11.598;2023-10-08T06:36:10;9.10;79.10
4406;DHT22;2216;53.806;11.598;2023-10-08T06:38:36;9.10;79.10
4406;DHT22;2216;53.806;11.598;2023-10-08T06:41:05;9.10;79.10
4406;DHT22;2216;53.806;11.598;2023-10-08T06:43:35;9.20;79.20
4406;DHT22;2216;53.806;11.598;2023-10-08T06:46:05;9.20;79.20
4406;DHT22;2216;53.806;11.598;2023-10-08T06:48:38;9.20;79.20
4406;DHT22;2216;53.806;11.598;2023-10-08T06:51:09;9.30;79.30
4406;DHT22;2216;53.806;11.598;2023-10-08T06:53:42;9.30;79.30
4406;DHT22;2216;53.806;11.598;2023-10-08T06:56:11;9.40;79.40
4406;DHT22;2216;53.806;11.598;2023-10-08T06:58:39;9.40;79.30
4406;DHT22;2216;53.806;11.598;2023-10-08T07:01:08;9.40;79.20
4406;DHT22;2216;53.806;11.598;2023-10-08T08:39:42;11.00;79.80
4406;DHT22;2216;53.806;11.598;2023-10-08T08:42:39;11.00;81.10
4406;DHT22;2216;53.806;11.598;2023-10-08T08:45:09;11.20;81.90
4406;DHT22;2216;53.806;11.598;2023-10-08T08:47:37;11.40;82.00
4406;DHT22;2216;53.806;11.598;2023-10-08T08:50:07;11.60;82.00
4406;DHT22;2216;53.806;11.598;2023-10-08T08:52:40;11.80;81.90
4406;DHT22;2216;53.806;11.598;2023-10-08T08:55:09;12.00;81.80
4406;DHT22;2216;53.806;11.598;2023-10-08T08:57:43;12.10;81.70
4406;DHT22;2216;53.806;11.598;2023-10-08T09:00:14;12.30;81.60
4406;DHT22;2216;53.806;11.598;2023-10-08T09:02:44;12.40;81.50
4406;DHT22;2216;53.806;11.598;2023-10-08T09:05:12;12.60;81.30
4406;DHT22;2216;53.806;11.598;2023-10-08T09:07:56;12.70;81.20
4406;DHT22;2216;53.806;11.598;2023-10-08T09:10:25;12.90;81.20
4406;DHT22;2216;53.806;11.598;2023-10-08T09:12:55;13.00;81.10
4406;DHT22;2216;53.806;11.598;2023-10-08T09:15:28;13.10;81.10
4406;DHT22;2216;53.806;11.598;2023-10-08T09:17:54;13.30;81.10
4406;DHT22;2216;53.806;11.598;2023-10-08T09:20:21;13.40;81.10
4406;DHT22;2216;53.806;11.598;2023-10-08T09:23:17;13.40;81.10
4406;DHT22;2216;53.806;11.598;2023-10-08T09:25:45;13.70;81.20
4406;DHT22;2216;53.806;11.598;2023-10-08T09:28:15;13.80;81.10
4406;DHT22;2216;53.806;11.598;2023-10-08T09:30:42;14.00;81.80
4406;DHT22;2216;53.806;11.598;2023-10-08T09:33:11;14.10;81.10
4406;DHT22;2216;53.806;11.598;2023-10-08T09:35:38;14.40;81.30
4406;DHT22;2216;53.806;11.598;2023-10-08T09:38:05;14.50;81.30
4406;DHT22;2216;53.806;11.598;2023-10-08T09:40:39;14.80;81.30
4406;DHT22;2216;53.806;11.598;2023-10-08T09:43:12;14.80;80.80
4406;DHT22;2216;53.806;11.598;2023-10-08T09:45:46;15.00;80.50
4406;DHT22;2216;53.806;11.598;2023-10-08T09:48:16;15.10;80.40
4406;DHT22;2216;53.806;11.598;2023-10-08T09:50:43;15.20;80.40
4406;DHT22;2216;53.806;11.598;2023-10-08T09:53:11;15.40;80.60
4406;DHT22;2216;53.806;11.598;2023-10-08T09:55:55;15.50;80.70
4406;DHT22;2216;53.806;11.598;2023-10-08T09:58:26;15.70;80.20
4406;DHT22;2216;53.806;11.598;2023-10-08T10:00:55;15.80;79.90
4406;DHT22;2216;53.806;11.598;2023-10-08T10:03:23;15.80;79.40
4406;DHT22;2216;53.806;11.598;2023-10-08T10:05:51;15.90;79.30
4406;DHT22;2216;53.806;11.598;2023-10-08T10:08:18;16.00;79.30
4406;DHT22;2216;53.806;11.598;2023-10-08T10:10:45;16.00;79.30
4406;DHT22;2216;53.806;11.598;2023-10-08T10:13:15;16.10;79.10
4406;DHT22;2216;53.806;11.598;2023-10-08T10:15:43;16.10;79.40
4406;DHT22;2216;53.806;11.598;2023-10-08T10:18:13;16.20;79.60
4406;DHT22;2216;53.806;11.598;2023-10-08T10:21:45;16.30;79.70
4406;DHT22;2216;53.806;11.598;2023-10-08T10:23:49;16.40;79.70
4406;DHT22;2216;53.806;11.598;2023-10-08T10:26:26;16.50;79.50
4406;DHT22;2216;53.806;11.598;2023-10-08T10:31:41;16.60;79.30
4406;DHT22;2216;53.806;11.598;2023-10-08T10:34:13;16.60;79.20
4406;DHT22;2216;53.806;11.598;2023-10-08T10:36:43;16.70;79.10
4406;DHT22;2216;53.806;11.598;2023-10-08T10:39:13;16.60;79.00
4406;DHT22;2216;53.806;11.598;2023-10-08T10:41:47;16.70;78.90
4406;DHT22;2216;53.806;11.598;2023-10-08T10:44:14;16.70;78.90
4406;DHT22;2216;53.806;11.598;2023-10-08T10:46:45;16.80;79.00
4406;DHT22;2216;53.806;11.598;2023-10-08T10:49:18;16.80;79.10
4406;DHT22;2216;53.806;11.598;2023-10-08T10:51:50;16.80;79.20
4406;DHT22;2216;53.806;11.598;2023-10-08T10:54:25;16.90;79.30
4406;DHT22;2216;53.806;11.598;2023-10-08T10:56:52;17.00;79.20
4406;DHT22;2216;53.806;11.598;2023-10-08T10:59:33;17.00;79.00
4406;DHT22;2216;53.806;11.598;2023-10-08T11:02:05;17.00;78.90
4406;DHT22;2216;53.806;11.598;2023-10-08T11:04:33;17.00;78.80
4406;DHT22;2216;53.806;11.598;2023-10-08T11:07:11;17.10;79.10
4406;DHT22;2216;53.806;11.598;2023-10-08T11:09:37;17.10;78.80
4406;DHT22;2216;53.806;11.598;2023-10-08T11:12:06;17.10;78.70
4406;DHT22;2216;53.806;11.598;2023-10-08T11:14:42;16.90;78.50
4406;DHT22;2216;53.806;11.598;2023-10-08T11:17:17;17.10;78.60
4406;DHT22;2216;53.806;11.598;2023-10-08T11:19:46;17.10;78.50
4406;DHT22;2216;53.806;11.598;2023-10-08T11:22:12;17.20;78.90
4406;DHT22;2216;53.806;11.598;2023-10-08T11:24:42;17.20;79.70
4406;DHT22;2216;53.806;11.598;2023-10-08T11:27:13;17.40;79.90
4406;DHT22;2216;53.806;11.598;2023-10-08T11:29:48;17.50;80.40
4406;DHT22;2216;53.806;11.598;2023-10-08T11:32:15;17.70;80.60
4406;DHT22;2216;53.806;11.598;2023-10-08T11:34:47;17.90;80.50
4406;DHT22;2216;53.806;11.598;2023-10-08T11:37:36;18.00;80.20
4406;DHT22;2216;53.806;11.598;2023-10-08T11:40:02;18.20;79.70
4406;DHT22;2216;53.806;11.598;2023-10-08T11:42:43;18.30;79.60
4406;DHT22;2216;53.806;11.598;2023-10-08T11:45:16;18.30;80.00
4406;DHT22;2216;53.806;11.598;2023-10-08T11:48:05;18.50;79.70
4406;DHT22;2216;53.806;11.598;2023-10-08T11:50:38;18.60;79.50
4406;DHT22;2216;53.806;11.598;2023-10-08T11:53:04;18.60;79.20
4406;DHT22;2216;53.806;11.598;2023-10-08T11:55:35;18.60;78.70
4406;DHT22;2216;53.806;11.598;2023-10-08T11:58:03;18.60;78.60
4406;DHT22;2216;53.806;11.598;2023-10-08T12:00:39;18.60;78.30
4406;DHT22;2216;53.806;11.598;2023-10-08T12:03:13;18.50;77.60
4406;DHT22;2216;53.806;11.598;2023-10-08T12:05:44;18.30;76.90
4406;DHT22;2216;53.806;11.598;2023-10-08T12:08:15;18.20;76.70
4406;DHT22;2216;53.806;11.598;2023-10-08T12:10:46;18.00;76.70
4406;DHT22;2216;53.806;11.598;2023-10-08T12:13:14;17.80;76.50
4406;DHT22;2216;53.806;11.598;2023-10-08T12:15:42;17.70;76.50
4406;DHT22;2216;53.806;11.598;2023-10-08T12:18:10;17.60;76.60
4406;DHT22;2216;53.806;11.598;2023-10-08T12:20:51;17.40;76.60
4406;DHT22;2216;53.806;11.598;2023-10-08T12:23:19;17.30;76.60
4406;DHT22;2216;53.806;11.598;2023-10-08T12:25:53;17.20;76.70
4406;DHT22;2216;53.806;11.598;2023-10-08T12:28:24;17.10;76.80
4406;DHT22;2216;53.806;11.598;2023-10-08T12:30:51;17.10;76.90
4406;DHT22;2216;53.806;11.598;2023-10-08T12:33:21;17.00;77.00
4406;DHT22;2216;53.806;11.598;2023-10-08T12:35:50;16.90;77.20
4406;DHT22;2216;53.806;11.598;2023-10-08T12:38:19;16.90;77.30
4406;DHT22;2216;53.806;11.598;2023-10-08T12:40:51;16.80;77.50
4406;DHT22;2216;53.806;11.598;2023-10-08T12:43:20;16.90;77.40
4406;DHT22;2216;53.806;11.598;2023-10-08T12:45:48;16.80;77.10
4406;DHT22;2216;53.806;11.598;2023-10-08T12:48:25;16.80;76.80
4406;DHT22;2216;53.806;11.598;2023-10-08T12:50:52;16.70;76.20
4406;DHT22;2216;53.806;11.598;2023-10-08T12:53:27;16.60;76.10
4406;DHT22;2216;53.806;11.598;2023-10-08T12:56:00;16.50;76.40
4406;DHT22;2216;53.806;11.598;2023-10-08T12:58:32;16.40;76.60
4406;DHT22;2216;53.806;11.598;2023-10-08T13:01:07;16.40;76.90
4406;DHT22;2216;53.806;11.598;2023-10-08T13:03:38;16.30;76.90
4406;DHT22;2216;53.806;11.598;2023-10-08T13:06:10;16.10;76.50
4406;DHT22;2216;53.806;11.598;2023-10-08T13:08:40;16.20;76.90
4406;DHT22;2216;53.806;11.598;2023-10-08T13:11:06;16.20;76.60
4406;DHT22;2216;53.806;11.598;2023-10-08T13:13:32;16.10;76.80
4406;DHT22;2216;53.806;11.598;2023-10-08T13:15:59;16.10;76.50
4406;DHT22;2216;53.806;11.598;2023-10-08T13:18:28;16.00;76.70
4406;DHT22;2216;53.806;11.598;2023-10-08T13:20:55;15.90;76.80
4406;DHT22;2216;53.806;11.598;2023-10-08T13:23:23;15.90;76.70
4406;DHT22;2216;53.806;11.598;2023-10-08T13:25:52;15.90;76.60
4406;DHT22;2216;53.806;11.598;2023-10-08T13:28:22;15.80;76.40
4406;DHT22;2216;53.806;11.598;2023-10-08T13:30:52;15.80;76.70
4406;DHT22;2216;53.806;11.598;2023-10-08T13:33:22;15.80;76.90
4406;DHT22;2216;53.806;11.598;2023-10-08T13:35:48;15.70;77.60
4406;DHT22;2216;53.806;11.598;2023-10-08T13:38:18;15.70;76.90
4406;DHT22;2216;53.806;11.598;2023-10-08T13:40:47;15.70;76.90
4406;DHT22;2216;53.806;11.598;2023-10-08T13:43:34;15.60;76.60
4406;DHT22;2216;53.806;11.598;2023-10-08T13:46:04;15.60;76.60
4406;DHT22;2216;53.806;11.598;2023-10-08T13:48:33;15.50;77.30
4406;DHT22;2216;53.806;11.598;2023-10-08T13:51:01;15.50;76.70
4406;DHT22;2216;53.806;11.598;2023-10-08T13:53:32;15.50;77.40
4406;DHT22;2216;53.806;11.598;2023-10-08T13:55:59;15.50;77.50
4406;DHT22;2216;53.806;11.598;2023-10-08T13:58:27;15.50;77.60
4406;DHT22;2216;53.806;11.598;2023-10-08T14:00:55;15.40;77.60
4406;DHT22;2216;53.806;11.598;2023-10-08T14:03:27;15.50;77.70
4406;DHT22;2216;53.806;11.598;2023-10-08T14:05:57;15.50;77.60
4406;DHT22;2216;53.806;11.598;2023-10-08T14:08:28;15.40;77.20
4406;DHT22;2216;53.806;11.598;2023-10-08T14:10:54;15.40;77.30
4406;DHT22;2216;53.806;11.598;2023-10-08T14:13:31;15.40;77.10
4406;DHT22;2216;53.806;11.598;2023-10-08T14:15:58;15.40;77.30
4406;DHT22;2216;53.806;11.598;2023-10-08T14:18:24;15.40;77.30
4406;DHT22;2216;53.806;11.598;2023-10-08T14:20:55;15.30;77.30
4406;DHT22;2216;53.806;11.598;2023-10-08T14:23:22;15.20;77.10
4406;DHT22;2216;53.806;11.598;2023-10-08T14:25:49;15.20;77.10
4406;DHT22;2216;53.806;11.598;2023-10-08T14:28:17;15.20;76.80
4406;DHT22;2216;53.806;11.598;2023-10-08T14:31:09;15.10;76.80
4406;DHT22;2216;53.806;11.598;2023-10-08T14:33:41;15.20;76.90
4406;DHT22;2216;53.806;11.598;2023-10-08T14:36:09;15.00;76.70
4406;DHT22;2216;53.806;11.598;2023-10-08T14:38:54;15.00;76.90
4406;DHT22;2216;53.806;11.598;2023-10-08T14:41:38;15.00;77.00
4406;DHT22;2216;53.806;11.598;2023-10-08T14:44:23;15.00;77.10
4406;DHT22;2216;53.806;11.598;2023-10-08T14:46:52;14.90;76.90
4406;DHT22;2216;53.806;11.598;2023-10-08T14:49:20;14.90;76.90
4406;DHT22;2216;53.806;11.598;2023-10-08T14:51:47;14.80;76.80
4406;DHT22;2216;53.806;11.598;2023-10-08T14:54:14;14.80;77.00
4406;DHT22;2216;53.806;11.598;2023-10-08T14:56:40;14.80;76.90
4406;DHT22;2216;53.806;11.598;2023-10-08T14:59:05;14.80;76.80
4406;DHT22;2216;53.806;11.598;2023-10-08T15:01:31;14.70;76.70
4406;DHT22;2216;53.806;11.598;2023-10-08T15:03:59;14.70;76.80
4406;DHT22;2216;53.806;11.598;2023-10-08T15:06:30;14.60;76.90
4406;DHT22;2216;53.806;11.598;2023-10-08T15:08:57;14.60;76.80
4406;DHT22;2216;53.806;11.598;2023-10-08T15:11:23;14.60;76.80
4406;DHT22;2216;53.806;11.598;2023-10-08T15:13:50;14.60;76.80
4406;DHT22;2216;53.806;11.598;2023-10-08T15:16:19;14.50;76.80
4406;DHT22;2216;53.806;11.598;2023-10-08T15:18:48;14.50;76.80
4406;DHT22;2216;53.806;11.598;2023-10-08T15:21:16;14.50;76.80
4406;DHT22;2216;53.806;11.598;2023-10-08T15:23:43;14.40;76.80
4406;DHT22;2216;53.806;11.598;2023-10-08T15:26:11;14.40;76.80
4406;DHT22;2216;53.806;11.598;2023-10-08T15:28:38;14.30;76.70
4406;DHT22;2216;53.806;11.598;2023-10-08T15:31:05;14.30;76.80
4406;DHT22;2216;53.806;11.598;2023-10-08T15:33:32;14.30;76.80
4406;DHT22;2216;53.806;11.598;2023-10-08T15:35:58;14.20;76.80
4406;DHT22;2216;53.806;11.598;2023-10-08T15:38:24;14.20;76.80
4406;DHT22;2216;53.806;11.598;2023-10-08T15:40:51;14.20;76.80
4406;DHT22;2216;53.806;11.598;2023-10-08T15:43:17;14.10;76.90
4406;DHT22;2216;53.806;11.598;2023-10-08T15:45:43;14.30;77.00
4406;DHT22;2216;53.806;11.598;2023-10-08T15:48:10;14.10;76.90
4406;DHT22;2216;53.806;11.598;2023-10-08T15:50:36;14.00;76.80
4406;DHT22;2216;53.806;11.598;2023-10-08T15:53:01;14.00;76.80
4406;DHT22;2216;53.806;11.598;2023-10-08T15:55:27;14.00;76.90
4406;DHT22;2216;53.806;11.598;2023-10-08T15:57:53;14.00;76.90
4406;DHT22;2216;53.806;11.598;2023-10-08T16:00:19;13.90;76.90
4406;DHT22;2216;53.806;11.598;2023-10-08T16:02:45;13.90;76.80
4406;DHT22;2216;53.806;11.598;2023-10-08T16:05:12;13.80;76.60
4406;DHT22;2216;53.806;11.598;2023-10-08T16:07:40;13.80;76.60
4406;DHT22;2216;53.806;11.598;2023-10-08T16:10:06;13.80;76.70
4406;DHT22;2216;53.806;11.598;2023-10-08T16:12:32;13.80;76.70
4406;DHT22;2216;53.806;11.598;2023-10-08T16:14:58;13.70;76.70
4406;DHT22;2216;53.806;11.598;2023-10-08T16:17:24;13.70;76.70
4406;DHT22;2216;53.806;11.598;2023-10-08T16:19:50;13.50;76.60
4406;DHT22;2216;53.806;11.598;2023-10-08T16:22:16;13.60;76.70
4406;DHT22;2216;53.806;11.598;2023-10-08T16:24:42;13.60;76.80
4406;DHT22;2216;53.806;11.598;2023-10-08T16:27:08;13.50;76.80
4406;DHT22;2216;53.806;11.598;2023-10-08T16:29:34;13.50;76.80
4406;DHT22;2216;53.806;11.598;2023-10-08T16:32:02;13.50;76.80
4406;DHT22;2216;53.806;11.598;2023-10-08T16:34:29;13.40;76.70
4406;DHT22;2216;53.806;11.598;2023-10-08T16:36:54;13.40;76.80
4406;DHT22;2216;53.806;11.598;2023-10-08T16:39:20;13.40;76.80
4406;DHT22;2216;53.806;11.598;2023-10-08T16:41:50;13.30;76.60
4406;DHT22;2216;53.806;11.598;2023-10-08T16:44:20;13.30;76.60
4406;DHT22;2216;53.806;11.598;2023-10-08T16:46:48;13.30;76.60
4406;DHT22;2216;53.806;11.598;2023-10-08T16:49:14;13.20;76.50
4406;DHT22;2216;53.806;11.598;2023-10-08T16:51:40;13.20;76.50
4406;DHT22;2216;53.806;11.598;2023-10-08T16:54:06;13.10;76.50
4406;DHT22;2216;53.806;11.598;2023-10-08T16:56:41;13.10;76.40
4406;DHT22;2216;53.806;11.598;2023-10-08T16:59:07;13.00;76.40
4406;DHT22;2216;53.806;11.598;2023-10-08T17:01:35;13.10;76.40
4406;DHT22;2216;53.806;11.598;2023-10-08T17:04:01;12.90;76.40
4406;DHT22;2216;53.806;11.598;2023-10-08T17:06:27;12.80;76.40
4406;DHT22;2216;53.806;11.598;2023-10-08T17:08:54;12.80;76.40
4406;DHT22;2216;53.806;11.598;2023-10-08T17:11:20;12.70;76.40
4406;DHT22;2216;53.806;11.598;2023-10-08T17:13:46;12.70;76.50
4406;DHT22;2216;53.806;11.598;2023-10-08T17:16:11;12.60;76.50
4406;DHT22;2216;53.806;11.598;2023-10-08T17:18:38;12.60;76.50
4406;DHT22;2216;53.806;11.598;2023-10-08T17:21:12;12.60;76.50
4406;DHT22;2216;53.806;11.598;2023-10-08T17:23:40;12.50;76.50
4406;DHT22;2216;53.806;11.598;2023-10-08T17:26:06;12.50;76.40
4406;DHT22;2216;53.806;11.598;2023-10-08T17:28:31;12.40;76.40
4406;DHT22;2216;53.806;11.598;2023-10-08T17:30:57;12.40;76.40
4406;DHT22;2216;53.806;11.598;2023-10-08T17:33:24;12.40;76.50
4406;DHT22;2216;53.806;11.598;2023-10-08T17:35:54;12.30;76.50
4406;DHT22;2216;53.806;11.598;2023-10-08T17:38:19;12.30;76.50
4406;DHT22;2216;53.806;11.598;2023-10-08T17:40:45;12.20;76.50
4406;DHT22;2216;53.806;11.598;2023-10-08T17:43:11;12.20;76.50
4406;DHT22;2216;53.806;11.598;2023-10-08T17:45:36;12.10;76.40
4406;DHT22;2216;53.806;11.598;2023-10-08T17:48:06;12.10;76.50
4406;DHT22;2216;53.806;11.598;2023-10-08T17:50:33;12.10;76.50
4406;DHT22;2216;53.806;11.598;2023-10-08T17:53:02;12.00;76.50
4406;DHT22;2216;53.806;11.598;2023-10-08T17:55:28;12.00;76.50
4406;DHT22;2216;53.806;11.598;2023-10-08T17:57:54;12.00;76.60